Time;durP1;ratioP1;P1;durP2;ratioP2;P2;SDS_P1;SDS_P2;PMS_P1;PMS_P2;Temp;Humidity;BMP_temperature;BMP_pressure;BME280_temperature;BME280_humidity;BME280_pressure;Samples;Min_cycle;Max_cycle;Signal;HPM_P1;HPM_P2
2021/11/08 00:02:03;;;;;;;3.50;3.10;;;9.90;99.90;;;;;;5056485;28;20028;-83
2021/11/08 00:04:31;;;;;;;4.72;4.30;;;9.80;99.90;;;;;;5054582;28;20504;-83
2021/11/08 00:06:56;;;;;;;4.13;3.58;;;10.20;99.90;;;;;;5055642;28;20558;-83
2021/11/08 00:09:23;;;;;;;4.03;3.63;;;9.70;99.90;;;;;;5056271;28;20115;-83
2021/11/08 00:11:48;;;;;;;5.95;4.45;;;10.10;99.90;;;;;;5036065;28;20117;-83
2021/11/08 00:14:18;;;;;;;4.63;3.80;;;10.10;99.90;;;;;;5058249;28;20166;-83
2021/11/08 00:16:58;;;;;;;3.60;3.28;;;10.10;99.90;;;;;;5055780;28;20046;-83
2021/11/08 00:21:51;;;;;;;4.10;3.70;;;10.20;99.90;;;;;;5055883;28;20404;-83
2021/11/08 00:24:23;;;;;;;4.22;3.70;;;9.90;99.90;;;;;;5055055;28;20571;-83
2021/11/08 00:26:49;;;;;;;4.70;3.90;;;10.10;99.90;;;;;;5034103;28;20527;-83
2021/11/08 00:29:15;;;;;;;4.30;3.90;;;10.10;99.90;;;;;;5057568;28;20025;-83
2021/11/08 00:31:41;;;;;;;4.10;3.72;;;10.10;99.90;;;;;;5056132;28;20039;-83
2021/11/08 00:34:07;;;;;;;5.00;4.50;;;9.80;99.90;;;;;;5055409;28;20488;-83
2021/11/08 00:36:32;;;;;;;4.43;4.03;;;9.60;99.90;;;;;;5055389;28;20082;-83
2021/11/08 00:38:58;;;;;;;5.35;4.35;;;9.60;99.90;;;;;;5051079;28;20029;-82
2021/11/08 00:41:24;;;;;;;4.63;4.22;;;9.80;99.90;;;;;;5056173;28;20055;-83
2021/11/08 00:43:49;;;;;;;5.65;4.82;;;10.30;99.90;;;;;;5054843;28;20053;-83
2021/11/08 00:46:15;;;;;;;5.45;4.88;;;10.10;99.90;;;;;;5055430;28;20419;-83
2021/11/08 00:48:42;;;;;;;4.90;4.40;;;10.10;99.90;;;;;;5055029;28;20044;-83
2021/11/08 00:51:08;;;;;;;5.82;4.32;;;10.10;99.90;;;;;;5053254;28;20060;-83
2021/11/08 00:53:35;;;;;;;5.95;4.97;;;9.60;99.90;;;;;;5053607;28;20029;-83
2021/11/08 00:56:05;;;;;;;5.70;5.20;;;9.60;99.90;;;;;;5055434;28;20071;-83
2021/11/08 01:01:01;;;;;;;5.38;4.88;;;9.60;99.90;;;;;;5055006;28;20405;-83
2021/11/08 01:03:27;;;;;;;7.47;6.68;;;10.00;99.90;;;;;;5054888;28;20035;-83
2021/11/08 01:05:52;;;;;;;6.60;5.63;;;9.60;99.90;;;;;;5050383;28;20025;-83
2021/11/08 01:08:18;;;;;;;6.10;5.43;;;10.10;99.90;;;;;;5057274;28;20119;-83
2021/11/08 01:10:44;;;;;;;6.80;5.30;;;9.80;99.90;;;;;;5054766;28;20047;-83
2021/11/08 01:13:10;;;;;;;6.30;5.57;;;10.10;99.90;;;;;;5055019;28;20496;-83
2021/11/08 01:15:36;;;;;;;5.95;5.35;;;10.30;99.90;;;;;;5054853;28;20032;-83
2021/11/08 01:18:01;;;;;;;6.88;6.15;;;10.10;99.90;;;;;;5051103;28;20025;-83
2021/11/08 01:20:34;;;;;;;6.78;6.00;;;9.50;99.90;;;;;;5054083;28;20481;-83
2021/11/08 01:23:03;;;;;;;7.78;6.40;;;10.10;99.90;;;;;;5056571;28;20028;-83
2021/11/08 01:25:29;;;;;;;7.07;5.85;;;10.20;99.90;;;;;;5054841;28;20495;-83
2021/11/08 01:27:57;;;;;;;8.30;5.72;;;9.60;99.90;;;;;;5054557;28;20444;-83
2021/11/08 01:30:24;;;;;;;6.30;5.55;;;10.00;99.90;;;;;;5054355;28;20443;-83
2021/11/08 01:33:04;;;;;;;7.10;5.80;;;9.80;99.90;;;;;;5033346;28;20114;-83
2021/11/08 01:35:57;;;;;;;7.50;5.80;;;9.60;99.90;;;;;;5064589;28;20618;-83
2021/11/08 01:38:27;;;;;;;10.55;8.05;;;9.60;99.90;;;;;;5064555;28;20033;-83
2021/11/08 01:40:53;;;;;;;10.68;6.95;;;9.60;99.90;;;;;;5055253;28;20473;-83
2021/11/08 01:43:20;;;;;;;6.35;5.70;;;9.80;99.90;;;;;;5054891;28;20051;-83
2021/11/08 01:45:46;;;;;;;6.57;5.38;;;9.50;99.90;;;;;;5054023;28;20115;-83
2021/11/08 01:48:12;;;;;;;7.30;6.07;;;10.10;99.90;;;;;;5052566;28;20170;-83
2021/11/08 01:50:39;;;;;;;7.22;6.10;;;9.60;99.90;;;;;;5050819;28;20036;-83
2021/11/08 01:53:05;;;;;;;7.32;6.03;;;10.10;99.90;;;;;;5056027;28;20032;-83
2021/11/08 01:55:32;;;;;;;8.07;6.50;;;9.60;99.90;;;;;;5054573;28;20032;-83
2021/11/08 01:57:58;;;;;;;8.35;7.03;;;9.70;99.90;;;;;;5052888;28;20481;-83
2021/11/08 02:00:26;;;;;;;7.90;6.13;;;9.60;99.90;;;;;;5053288;28;20093;-83
2021/11/08 02:02:52;;;;;;;7.30;6.55;;;9.60;99.90;;;;;;5034180;28;20533;-82
2021/11/08 02:05:18;;;;;;;8.23;6.40;;;9.50;99.90;;;;;;5062984;28;20104;-83
2021/11/08 02:07:45;;;;;;;7.00;6.05;;;9.50;99.90;;;;;;5054332;28;20056;-83
2021/11/08 02:10:13;;;;;;;7.88;5.70;;;9.90;99.90;;;;;;5053734;28;20032;-83
2021/11/08 02:12:39;;;;;;;7.20;6.05;;;10.00;99.90;;;;;;5053768;28;20484;-83
2021/11/08 02:15:08;;;;;;;6.50;5.68;;;9.80;99.90;;;;;;5051667;28;20032;-83
2021/11/08 02:17:34;;;;;;;8.90;6.85;;;9.40;99.90;;;;;;5052981;28;20048;-83
2021/11/08 02:20:16;;;;;;;8.90;6.75;;;10.00;99.90;;;;;;5053778;28;20025;-83
2021/11/08 02:22:43;;;;;;;8.77;5.45;;;9.50;99.90;;;;;;5054086;28;20123;-83
2021/11/08 02:25:10;;;;;;;9.18;6.07;;;9.50;99.90;;;;;;5053895;28;20037;-83
2021/11/08 02:27:41;;;;;;;7.93;5.70;;;9.50;99.90;;;;;;5054244;28;20048;-83
2021/11/08 02:30:09;;;;;;;6.35;5.55;;;9.60;99.90;;;;;;5051274;28;20132;-83
2021/11/08 02:32:35;;;;;;;7.28;6.18;;;9.50;99.90;;;;;;5051310;28;20460;-84
2021/11/08 02:35:02;;;;;;;7.63;5.57;;;9.60;99.90;;;;;;5055808;28;20109;-83
2021/11/08 02:37:28;;;;;;;7.45;5.90;;;9.60;99.90;;;;;;5052769;28;20029;-83
2021/11/08 02:39:54;;;;;;;6.57;5.45;;;9.50;99.90;;;;;;5052134;28;20031;-83
2021/11/08 02:42:20;;;;;;;7.68;6.25;;;9.90;99.90;;;;;;5053168;28;20120;-83
2021/11/08 02:44:46;;;;;;;7.05;5.38;;;9.60;99.90;;;;;;5049908;28;20139;-83
2021/11/08 02:47:13;;;;;;;7.80;5.43;;;9.90;99.90;;;;;;5056151;28;20025;-83
2021/11/08 02:49:43;;;;;;;7.28;5.55;;;9.40;99.90;;;;;;5053232;28;20037;-83
2021/11/08 02:52:10;;;;;;;8.15;5.95;;;9.30;99.90;;;;;;5053733;28;20079;-83
2021/11/08 02:54:47;;;;;;;7.55;5.68;;;9.90;99.90;;;;;;5054338;28;20040;-83
2021/11/08 02:57:13;;;;;;;7.28;5.57;;;9.90;99.90;;;;;;5052045;28;20031;-83
2021/11/08 02:59:39;;;;;;;7.55;5.95;;;9.70;99.90;;;;;;5050119;28;20048;-83
2021/11/08 03:02:06;;;;;;;8.57;5.60;;;9.20;99.90;;;;;;5055451;28;20040;-83
2021/11/08 03:04:39;;;;;;;8.27;6.07;;;9.20;99.90;;;;;;5053175;28;20037;-83
2021/11/08 03:07:06;;;;;;;7.90;5.88;;;9.20;99.90;;;;;;5053593;28;20079;-83
2021/11/08 03:09:49;;;;;;;9.00;6.07;;;9.60;99.90;;;;;;5053075;28;20033;-83
2021/11/08 03:12:17;;;;;;;8.35;6.35;;;9.30;99.90;;;;;;5052362;28;20442;-83
2021/11/08 03:15:36;;;;;;;8.00;6.00;;;10.00;99.90;;;;;;5050088;28;20106;-83
2021/11/08 03:17:41;;;;;;;11.43;6.25;;;9.30;99.90;;;;;;5043230;28;20505;-83
2021/11/08 03:20:12;;;;;;;9.27;6.68;;;9.40;99.90;;;;;;5054416;28;20493;-83
2021/11/08 03:22:45;;;;;;;7.80;6.55;;;9.40;99.90;;;;;;5053377;28;20029;-83
2021/11/08 03:25:21;;;;;;;7.32;5.93;;;10.00;99.90;;;;;;5053026;28;20021;-83
2021/11/08 03:27:52;;;;;;;7.88;6.18;;;9.40;99.90;;;;;;5054059;28;20528;-83
2021/11/08 03:30:22;;;;;;;7.90;6.03;;;9.80;99.90;;;;;;5055823;28;20074;-83
2021/11/08 03:32:50;;;;;;;9.88;6.28;;;9.60;99.90;;;;;;5053254;28;20029;-83
2021/11/08 03:35:22;;;;;;;7.70;6.50;;;9.90;99.90;;;;;;5058746;28;20048;-83
2021/11/08 03:37:49;;;;;;;9.35;6.75;;;9.80;99.90;;;;;;5056262;28;20470;-83
2021/11/08 03:40:21;;;;;;;9.55;6.85;;;9.20;99.90;;;;;;5039045;28;20037;-83
2021/11/08 03:42:48;;;;;;;8.43;6.20;;;9.20;99.90;;;;;;5056001;28;20025;-83
2021/11/08 03:45:15;;;;;;;9.07;6.05;;;9.70;99.90;;;;;;5054896;28;20213;-83
2021/11/08 03:47:41;;;;;;;8.55;6.72;;;9.20;99.90;;;;;;5053633;28;20022;-83
2021/11/08 03:50:09;;;;;;;8.90;6.53;;;9.20;99.90;;;;;;5059089;28;20036;-83
2021/11/08 03:52:35;;;;;;;7.68;6.05;;;9.20;99.90;;;;;;5056135;28;20029;-83
2021/11/08 03:55:02;;;;;;;8.32;6.32;;;9.70;99.90;;;;;;5055115;28;20104;-83
2021/11/08 03:57:27;;;;;;;13.23;6.65;;;9.20;99.90;;;;;;5055085;28;20032;-83
2021/11/08 03:59:54;;;;;;;7.97;6.57;;;9.20;99.90;;;;;;5051717;28;20035;-83
2021/11/08 04:02:21;;;;;;;9.13;6.45;;;9.10;99.90;;;;;;5058034;28;20024;-83
2021/11/08 04:04:48;;;;;;;9.40;5.95;;;9.10;99.90;;;;;;5055182;28;20033;-83
2021/11/08 04:07:14;;;;;;;7.82;5.82;;;9.40;99.90;;;;;;5056269;28;20021;-83
2021/11/08 04:09:40;;;;;;;10.88;6.38;;;8.90;99.90;;;;;;5056515;28;20040;-83
2021/11/08 04:12:08;;;;;;;10.55;6.50;;;9.50;99.90;;;;;;5054083;28;20390;-83
2021/11/08 04:14:34;;;;;;;9.82;6.40;;;9.20;99.90;;;;;;5054209;28;20043;-83
2021/11/08 04:17:00;;;;;;;8.52;6.20;;;8.90;99.90;;;;;;5057786;28;20025;-82
2021/11/08 04:19:30;;;;;;;9.93;6.60;;;9.20;99.90;;;;;;5056234;28;20060;-83
2021/11/08 04:21:58;;;;;;;8.45;6.35;;;9.20;99.90;;;;;;5055896;28;20047;-83
2021/11/08 04:24:24;;;;;;;7.40;6.38;;;9.20;99.90;;;;;;5055716;28;20060;-83
2021/11/08 04:26:51;;;;;;;9.95;6.22;;;8.80;99.90;;;;;;5035959;28;20391;-83
2021/11/08 04:29:16;;;;;;;8.18;6.03;;;8.60;99.90;;;;;;5058411;28;20044;-83
2021/11/08 04:31:42;;;;;;;8.70;6.65;;;8.60;99.90;;;;;;5055766;28;20044;-83
2021/11/08 04:34:23;;;;;;;9.02;6.40;;;8.60;99.90;;;;;;5055174;28;20412;-83
2021/11/08 04:42:15;;;;;;;8.02;6.18;;;8.70;99.90;;;;;;5039821;28;20409;-83
2021/11/08 05:25:28;;;;;;;11.98;6.78;;;9.00;99.90;;;;;;5054410;28;20033;-83
2021/11/08 05:30:39;;;;;;;9.82;7.15;;;9.10;99.90;;;;;;5055022;28;20041;-83
2021/11/08 05:33:04;;;;;;;11.48;7.15;;;9.10;99.90;;;;;;5052265;28;20389;-82
2021/11/08 05:35:31;;;;;;;12.25;7.40;;;9.30;99.90;;;;;;5053381;28;20029;-83
2021/11/08 05:37:58;;;;;;;8.25;6.75;;;9.50;99.90;;;;;;5055841;28;20024;-83
2021/11/08 05:40:30;;;;;;;11.57;8.05;;;8.90;99.90;;;;;;5054118;28;20023;-83
2021/11/08 05:42:57;;;;;;;12.90;7.97;;;9.50;99.90;;;;;;5054278;28;20029;-83
2021/11/08 05:45:26;;;;;;;9.13;7.10;;;8.90;99.90;;;;;;5054119;28;20036;-83
2021/11/08 05:47:51;;;;;;;10.95;8.30;;;8.90;99.90;;;;;;5034756;28;20030;-83
2021/11/08 05:50:21;;;;;;;11.40;8.60;;;9.40;99.90;;;;;;5055954;28;20040;-83
2021/11/08 05:52:51;;;;;;;10.68;7.30;;;9.30;99.90;;;;;;5053533;28;20047;-83
2021/11/08 05:55:19;;;;;;;9.07;7.32;;;9.00;99.90;;;;;;5052897;28;20074;-83
2021/11/08 05:57:51;;;;;;;11.50;6.93;;;9.40;99.90;;;;;;5053879;28;20025;-83
2021/11/08 06:49:23;;;;;;;10.73;6.70;;;9.40;99.90;;;;;;5053115;28;20083;-86
2021/11/08 06:51:50;;;;;;;9.10;6.65;;;8.90;99.90;;;;;;5053073;28;20029;-86
2021/11/08 06:54:18;;;;;;;10.30;7.00;;;9.00;99.90;;;;;;5053284;28;20582;-86
2021/11/08 06:56:52;;;;;;;11.27;6.65;;;9.70;99.90;;;;;;5050595;28;20029;-85
2021/11/08 06:59:19;;;;;;;21.52;15.25;;;9.00;99.90;;;;;;5044393;28;20024;-86
2021/11/08 07:01:48;;;;;;;12.30;7.85;;;9.60;99.90;;;;;;5053641;28;20404;-85
2021/11/08 07:04:15;;;;;;;11.90;6.85;;;9.40;99.90;;;;;;5056673;28;20025;-86
2021/11/08 07:06:40;;;;;;;10.10;6.25;;;9.40;99.90;;;;;;5057087;28;20064;-85
2021/11/08 07:09:06;;;;;;;10.02;6.65;;;9.10;99.90;;;;;;5053281;28;20072;-86
2021/11/08 07:11:32;;;;;;;11.55;7.35;;;8.80;99.90;;;;;;5056836;28;20037;-85
2021/11/08 07:13:58;;;;;;;9.32;6.03;;;8.70;99.90;;;;;;5037385;28;20493;-85
2021/11/08 07:16:23;;;;;;;8.45;5.53;;;8.70;99.90;;;;;;5054308;28;20036;-86
2021/11/08 07:18:49;;;;;;;13.05;8.30;;;8.70;99.90;;;;;;5038798;28;20090;-86
2021/11/08 07:21:15;;;;;;;10.80;6.53;;;8.80;99.90;;;;;;5055944;28;20059;-85
2021/11/08 07:23:40;;;;;;;8.43;6.57;;;9.50;99.90;;;;;;5054136;28;20493;-86
2021/11/08 07:26:10;;;;;;;9.70;6.10;;;9.40;99.90;;;;;;5059070;28;20035;-85
2021/11/08 07:28:36;;;;;;;7.15;5.72;;;9.30;99.90;;;;;;5056850;28;20041;-86
2021/11/08 07:31:02;;;;;;;12.07;7.20;;;9.00;99.90;;;;;;5056481;28;20086;-86
2021/11/08 07:33:30;;;;;;;18.20;12.55;;;9.40;99.90;;;;;;5053110;28;20116;-85
2021/11/08 07:35:57;;;;;;;10.98;7.05;;;9.50;99.90;;;;;;5068586;28;20056;-84
2021/11/08 07:38:23;;;;;;;12.23;6.00;;;9.10;99.90;;;;;;5057304;28;20377;-85
2021/11/08 07:40:48;;;;;;;10.13;5.78;;;9.10;99.90;;;;;;5057449;28;20027;-85
2021/11/08 07:43:14;;;;;;;7.40;5.57;;;9.10;99.90;;;;;;5056660;28;20486;-85
2021/11/08 07:45:40;;;;;;;9.90;6.20;;;9.30;99.90;;;;;;5056506;28;20119;-84
2021/11/08 07:48:07;;;;;;;9.23;6.85;;;9.00;99.90;;;;;;5053166;28;20029;-84
2021/11/08 07:50:32;;;;;;;11.30;6.07;;;9.30;99.90;;;;;;5055791;28;20033;-84
2021/11/08 07:52:58;;;;;;;10.10;6.63;;;9.70;99.90;;;;;;5055907;28;20040;-85
2021/11/08 07:55:24;;;;;;;9.30;5.68;;;9.30;99.90;;;;;;5056837;28;20053;-84
2021/11/08 07:57:49;;;;;;;9.73;5.53;;;9.10;99.90;;;;;;5056192;28;20029;-84
2021/11/08 08:00:15;;;;;;;8.35;5.90;;;9.00;99.90;;;;;;5055076;28;20021;-82
2021/11/08 08:02:42;;;;;;;10.57;6.07;;;9.20;99.90;;;;;;5035124;28;20033;-84
2021/11/08 08:05:08;;;;;;;9.70;5.97;;;9.30;99.90;;;;;;5058538;28;20044;-86
2021/11/08 08:07:33;;;;;;;8.85;6.53;;;9.30;99.90;;;;;;5066206;28;20519;-84
2021/11/08 08:09:59;;;;;;;8.02;6.00;;;9.90;99.90;;;;;;5063763;28;20511;-85
2021/11/08 08:12:25;;;;;;;7.50;5.28;;;10.00;99.90;;;;;;5067772;28;20032;-85
2021/11/08 08:14:51;;;;;;;10.85;6.43;;;9.80;99.90;;;;;;5051925;28;20127;-87
2021/11/08 08:17:16;;;;;;;8.57;5.55;;;9.90;99.90;;;;;;5058201;28;20500;-87
2021/11/08 08:19:42;;;;;;;9.82;5.90;;;9.50;99.90;;;;;;5056075;28;20083;-84
2021/11/08 08:22:08;;;;;;;9.98;5.30;;;9.40;99.90;;;;;;5055807;28;20032;-83
2021/11/08 08:24:34;;;;;;;9.55;5.93;;;9.30;99.90;;;;;;5056078;28;20090;-84
2021/11/08 08:27:04;;;;;;;9.07;5.65;;;9.10;99.90;;;;;;5049951;28;20059;-83
2021/11/08 08:29:33;;;;;;;8.80;4.60;;;9.60;99.90;;;;;;5065928;28;20107;-86
2021/11/08 08:32:00;;;;;;;8.65;5.60;;;9.00;99.90;;;;;;5057930;28;20061;-86
2021/11/08 08:34:25;;;;;;;8.43;5.72;;;9.50;99.90;;;;;;5055934;28;20500;-87
2021/11/08 08:36:53;;;;;;;7.65;5.50;;;9.90;99.90;;;;;;5056169;28;20021;-86
2021/11/08 08:39:20;;;;;;;8.63;6.05;;;9.40;99.90;;;;;;5055110;28;20093;-86
2021/11/08 08:41:47;;;;;;;14.10;5.60;;;9.60;99.90;;;;;;5052077;28;20104;-86
2021/11/08 08:44:13;;;;;;;9.35;5.93;;;9.70;99.90;;;;;;5058354;28;20021;-86
2021/11/08 08:46:46;;;;;;;9.00;5.90;;;9.10;99.90;;;;;;5055439;28;20576;-87
2021/11/08 08:49:17;;;;;;;11.27;6.05;;;9.10;99.90;;;;;;5056154;28;20044;-88
2021/11/08 08:51:45;;;;;;;9.48;5.97;;;9.70;99.90;;;;;;5054392;28;20037;-85
2021/11/08 08:54:10;;;;;;;10.05;6.82;;;9.20;99.90;;;;;;5053858;28;20044;-87
2021/11/08 08:56:37;;;;;;;21.48;13.75;;;9.60;99.90;;;;;;5054063;28;20033;-83
2021/11/08 08:59:05;;;;;;;42.33;19.52;;;9.30;99.90;;;;;;5060450;28;20044;-85
2021/11/08 09:01:30;;;;;;;48.35;23.02;;;9.50;99.90;;;;;;5037421;28;20029;-86
2021/11/08 09:03:56;;;;;;;35.20;17.77;;;9.70;99.90;;;;;;5055408;28;20031;-85
2021/11/08 09:06:24;;;;;;;41.47;21.00;;;9.60;99.90;;;;;;5056811;28;20381;-85
2021/11/08 09:08:50;;;;;;;106.22;57.25;;;9.60;99.90;;;;;;5034492;28;20022;-86
2021/11/08 09:11:16;;;;;;;22.33;12.93;;;10.30;99.90;;;;;;5057529;28;20382;-86
2021/11/08 09:13:43;;;;;;;61.58;30.40;;;10.30;99.90;;;;;;5055051;28;20031;-85
2021/11/08 09:16:12;;;;;;;14.38;9.15;;;10.50;99.90;;;;;;5055383;28;20032;-85
2021/11/08 09:18:43;;;;;;;45.17;24.75;;;10.30;99.90;;;;;;5055103;28;20073;-85
2021/11/08 09:21:10;;;;;;;30.10;16.17;;;10.30;99.90;;;;;;5050573;28;20034;-85
2021/11/08 09:23:36;;;;;;;10.32;5.97;;;10.10;99.90;;;;;;5053525;28;20021;-86
2021/11/08 09:26:02;;;;;;;44.92;28.05;;;9.90;99.90;;;;;;5054332;28;20040;-85
2021/11/08 09:28:29;;;;;;;13.75;8.55;;;10.10;99.90;;;;;;5055525;28;20120;-86
2021/11/08 09:30:55;;;;;;;17.80;10.43;;;12.00;99.90;;;;;;5054405;28;20052;-86
2021/11/08 09:33:21;;;;;;;11.30;5.80;;;13.60;99.90;;;;;;5036333;28;20024;-86
2021/11/08 09:35:49;;;;;;;19.98;12.98;;;13.80;99.90;;;;;;5051285;28;20124;-86
2021/11/08 09:38:17;;;;;;;14.10;8.68;;;12.60;99.90;;;;;;5056888;28;20489;-86
2021/11/08 09:40:44;;;;;;;27.88;17.35;;;12.00;99.90;;;;;;5054991;28;20497;-85
2021/11/08 09:43:15;;;;;;;10.98;5.32;;;11.90;99.90;;;;;;5054627;28;20029;-85
2021/11/08 09:45:42;;;;;;;9.20;3.72;;;11.40;99.90;;;;;;5053731;28;20041;-85
2021/11/08 09:48:11;;;;;;;7.65;3.75;;;11.30;99.90;;;;;;5050496;28;20032;-85
2021/11/08 09:50:38;;;;;;;9.15;6.18;;;11.40;99.90;;;;;;5052295;28;20478;-85
2021/11/08 09:53:06;;;;;;;9.77;6.75;;;12.00;99.90;;;;;;5057125;28;20025;-85
2021/11/08 09:55:32;;;;;;;11.15;7.68;;;13.40;99.90;;;;;;5054046;28;20040;-87
2021/11/08 09:57:58;;;;;;;11.45;6.88;;;16.00;99.90;;;;;;5036847;28;20024;-88
2021/11/08 10:00:41;;;;;;;7.07;4.13;;;13.90;99.90;;;;;;5050533;28;20417;-88
2021/11/08 10:03:15;;;;;;;8.25;5.95;;;15.20;99.90;;;;;;5039120;28;20055;-88
2021/11/08 10:05:45;;;;;;;9.07;7.43;;;16.90;99.90;;;;;;5051656;28;20029;-85
2021/11/08 10:08:12;;;;;;;5.18;3.50;;;15.70;99.90;;;;;;5055626;28;20021;-86
2021/11/08 10:10:38;;;;;;;7.32;3.47;;;15.00;99.90;;;;;;5054228;28;20041;-90
2021/11/08 10:13:08;;;;;;;9.20;5.70;;;14.40;99.90;;;;;;5022436;28;20055;-90
2021/11/08 10:15:40;;;;;;;8.27;4.00;;;13.60;99.90;;;;;;5043670;28;20033;-88
2021/11/08 10:18:06;;;;;;;7.35;3.85;;;12.60;99.90;;;;;;5049891;28;20025;-88
2021/11/08 10:20:44;;;;;;;8.75;4.10;;;12.90;99.90;;;;;;5067391;28;20047;-85
2021/11/08 10:23:12;;;;;;;7.13;3.75;;;13.90;99.90;;;;;;5054980;28;20025;-86
2021/11/08 10:25:40;;;;;;;7.93;4.88;;;13.20;99.90;;;;;;5053318;28;20451;-86
2021/11/08 10:28:19;;;;;;;6.95;3.75;;;13.00;99.90;;;;;;5052807;28;20033;-85
2021/11/08 10:30:47;;;;;;;8.73;4.13;;;12.80;99.90;;;;;;5054047;28;20029;-86
2021/11/08 10:33:34;;;;;;;8.02;4.10;;;15.80;99.90;;;;;;5052183;28;20167;-87
2021/11/08 10:36:14;;;;;;;6.07;3.60;;;16.60;99.90;;;;;;5018570;28;20039;-87
2021/11/08 10:38:42;;;;;;;7.45;3.67;;;15.50;99.90;;;;;;5053669;28;20025;-87
2021/11/08 10:41:19;;;;;;;13.05;5.28;;;14.70;99.90;;;;;;5060160;28;20037;-87
2021/11/08 10:43:54;;;;;;;7.60;3.97;;;15.40;99.90;;;;;;5057956;28;20508;-87
2021/11/08 10:46:24;;;;;;;10.18;3.65;;;13.40;99.90;;;;;;5057369;28;20410;-86
2021/11/08 10:49:03;;;;;;;6.97;3.67;;;12.20;99.90;;;;;;5057754;28;20031;-85
2021/11/08 10:51:30;;;;;;;8.75;3.88;;;11.80;99.90;;;;;;5057531;28;20131;-85
2021/11/08 10:53:59;;;;;;;10.23;3.72;;;12.30;99.90;;;;;;5053737;28;20176;-85
2021/11/08 10:56:29;;;;;;;8.70;3.53;;;12.10;99.90;;;;;;5058281;28;20508;-86
2021/11/08 10:58:57;;;;;;;8.07;3.22;;;12.00;99.90;;;;;;5057068;28;20021;-85
2021/11/08 11:01:34;;;;;;;7.28;3.55;;;11.90;99.90;;;;;;5057354;28;20031;-86
2021/11/08 11:04:03;;;;;;;5.40;3.20;;;11.90;99.90;;;;;;5056495;28;20036;-85
2021/11/08 11:06:46;;;;;;;8.25;3.42;;;11.50;99.90;;;;;;5055816;28;20438;-86
2021/11/08 11:09:23;;;;;;;10.68;3.58;;;11.50;99.90;;;;;;5054438;28;20021;-86
2021/11/08 11:12:05;;;;;;;9.82;3.58;;;11.90;99.90;;;;;;5053186;28;20048;-88
2021/11/08 11:14:40;;;;;;;8.75;3.72;;;11.30;99.90;;;;;;5067521;28;20032;-86
2021/11/08 11:17:10;;;;;;;6.63;3.60;;;11.60;99.90;;;;;;5059066;28;20481;-89
2021/11/08 11:19:36;;;;;;;6.63;3.70;;;11.00;99.90;;;;;;5068291;28;20029;-91
2021/11/08 11:22:06;;;;;;;8.32;3.22;;;11.70;99.90;;;;;;5064309;28;20052;-90
2021/11/08 11:24:33;;;;;;;13.07;7.13;;;11.00;99.90;;;;;;5055874;28;20033;-88
2021/11/08 11:26:59;;;;;;;12.30;4.82;;;10.90;99.90;;;;;;5053577;28;20044;-87
2021/11/08 11:29:29;;;;;;;43.20;23.83;;;11.10;99.90;;;;;;5070794;28;20388;-89
2021/11/08 11:31:56;;;;;;;16.55;10.85;;;11.40;99.90;;;;;;5068754;28;20071;-87
2021/11/08 11:34:22;;;;;;;6.18;3.78;;;11.30;99.90;;;;;;5059887;28;20043;-91
2021/11/08 11:36:48;;;;;;;15.25;9.63;;;11.70;99.90;;;;;;5058577;28;20128;-90
2021/11/08 11:39:16;;;;;;;48.30;31.67;;;12.00;99.90;;;;;;5038011;28;20540;-89
2021/11/08 11:41:45;;;;;;;23.90;14.90;;;12.10;99.90;;;;;;5055029;28;20044;-89
2021/11/08 11:44:28;;;;;;;15.20;9.07;;;12.10;99.90;;;;;;5037660;28;20229;-87
2021/11/08 11:46:56;;;;;;;27.20;17.98;;;12.00;99.90;;;;;;5054920;28;20494;-89
2021/11/08 11:49:23;;;;;;;16.92;11.52;;;12.20;99.90;;;;;;5056854;28;20036;-89
2021/11/08 11:51:55;;;;;;;12.65;7.75;;;12.30;99.90;;;;;;5038325;28;20416;-87
2021/11/08 11:54:29;;;;;;;11.48;7.20;;;11.90;99.90;;;;;;5038471;28;20021;-89
2021/11/08 11:56:58;;;;;;;7.65;3.90;;;12.60;99.90;;;;;;5035866;28;20056;-87
2021/11/08 11:59:24;;;;;;;6.65;3.85;;;12.30;99.90;;;;;;5056770;28;20444;-84
2021/11/08 12:01:50;;;;;;;8.20;5.18;;;12.10;99.90;;;;;;5040135;28;20073;-86
2021/11/08 12:04:16;;;;;;;8.35;4.80;;;11.60;99.90;;;;;;5056636;28;20127;-86
2021/11/08 12:06:45;;;;;;;12.23;7.47;;;11.60;99.90;;;;;;5056297;28;20143;-86
2021/11/08 12:09:17;;;;;;;13.65;8.13;;;12.10;99.90;;;;;;5054549;28;20047;-86
2021/11/08 12:11:45;;;;;;;18.00;10.73;;;11.90;99.90;;;;;;5052803;28;20517;-85
2021/11/08 12:14:17;;;;;;;11.20;5.47;;;11.70;99.90;;;;;;5058199;28;20025;-85
2021/11/08 12:17:16;;;;;;;6.20;3.30;;;11.70;99.90;;;;;;5056041;28;20033;-85
2021/11/08 12:19:44;;;;;;;10.52;7.13;;;11.70;99.90;;;;;;5056204;28;20068;-84
2021/11/08 12:22:20;;;;;;;16.33;10.80;;;11.50;99.90;;;;;;5037543;28;20029;-85
2021/11/08 12:24:59;;;;;;;8.95;5.40;;;12.00;99.90;;;;;;5055530;28;20028;-85
2021/11/08 12:27:50;;;;;;;21.23;13.38;;;11.90;99.90;;;;;;5055154;28;20044;-85
2021/11/08 12:30:40;;;;;;;17.23;11.77;;;11.30;99.90;;;;;;5054347;28;20498;-85
2021/11/08 12:33:20;;;;;;;7.80;3.90;;;11.60;99.90;;;;;;5039720;28;20037;-87
2021/11/08 12:35:46;;;;;;;7.78;4.18;;;12.30;99.90;;;;;;5034288;28;20065;-85
2021/11/08 12:38:35;;;;;;;6.15;3.83;;;12.60;99.90;;;;;;5058121;28;20053;-85
2021/11/08 12:41:11;;;;;;;6.88;3.70;;;12.70;99.90;;;;;;5057014;28;20039;-85
2021/11/08 12:43:40;;;;;;;4.97;2.97;;;12.60;99.90;;;;;;5056234;28;20082;-86
2021/11/08 12:46:21;;;;;;;7.68;4.22;;;12.90;99.90;;;;;;5033093;28;20083;-85
2021/11/08 12:48:49;;;;;;;6.18;3.60;;;12.50;99.90;;;;;;5045627;28;20029;-86
2021/11/08 12:51:17;;;;;;;6.35;3.20;;;12.60;99.90;;;;;;5054104;28;20086;-85
2021/11/08 12:53:47;;;;;;;8.25;2.85;;;12.60;99.90;;;;;;5053001;28;20025;-85
2021/11/08 12:56:26;;;;;;;4.15;2.75;;;12.60;99.90;;;;;;5056550;28;20086;-85
2021/11/08 12:59:00;;;;;;;6.22;3.42;;;12.40;99.90;;;;;;5053759;28;20029;-86
2021/11/08 13:01:41;;;;;;;15.25;8.13;;;12.50;99.90;;;;;;5054907;28;20108;-86
2021/11/08 13:04:09;;;;;;;50.25;28.00;;;12.40;99.90;;;;;;5054458;28;20017;-86
2021/11/08 13:06:36;;;;;;;35.83;19.52;;;12.30;99.90;;;;;;5038681;28;20025;-85
2021/11/08 13:09:24;;;;;;;47.50;24.75;;;12.60;99.90;;;;;;5051989;28;20481;-86
2021/11/08 13:11:55;;;;;;;37.78;18.98;;;12.60;99.90;;;;;;5050901;28;20099;-86
2021/11/08 13:14:36;;;;;;;20.90;12.35;;;12.60;99.90;;;;;;5064669;28;20020;-86
2021/11/08 13:17:15;;;;;;;14.60;8.63;;;12.60;99.90;;;;;;5056959;28;20087;-85
2021/11/08 13:19:48;;;;;;;7.72;5.25;;;12.60;99.90;;;;;;5054789;28;20036;-86
2021/11/08 13:22:27;;;;;;;13.45;9.75;;;13.70;99.90;;;;;;5055034;28;20013;-86
2021/11/08 13:25:24;;;;;;;7.60;4.68;;;13.30;99.90;;;;;;5037272;28;20033;-86
2021/11/08 13:27:52;;;;;;;7.72;3.30;;;12.80;99.90;;;;;;5031040;28;20391;-85
2021/11/08 13:30:29;;;;;;;17.58;8.68;;;12.50;99.90;;;;;;5041977;28;20047;-85
2021/11/08 13:32:55;;;;;;;12.50;7.43;;;12.40;99.90;;;;;;5033793;28;20033;-85
2021/11/08 13:35:25;;;;;;;9.40;5.53;;;12.60;99.90;;;;;;5056343;28;20396;-86
2021/11/08 13:38:10;;;;;;;8.70;5.93;;;12.70;99.90;;;;;;5053094;28;20396;-85
2021/11/08 13:40:40;;;;;;;25.92;17.92;;;12.60;99.90;;;;;;5054385;28;20036;-86
2021/11/08 13:43:11;;;;;;;7.85;5.25;;;12.70;99.90;;;;;;5053143;28;20086;-85
2021/11/08 13:46:06;;;;;;;9.68;4.53;;;12.60;99.90;;;;;;5054849;28;20035;-86
2021/11/08 13:48:35;;;;;;;6.65;3.45;;;12.70;99.90;;;;;;4984094;28;20118;-86
2021/11/08 13:51:07;;;;;;;4.38;2.80;;;12.20;99.90;;;;;;4986964;28;20503;-86
2021/11/08 13:53:36;;;;;;;7.32;4.93;;;12.40;99.90;;;;;;4974055;28;20042;-86
2021/11/08 13:56:06;;;;;;;6.22;3.72;;;12.40;99.90;;;;;;4986583;28;20139;-85
2021/11/08 13:58:31;;;;;;;6.68;3.42;;;12.50;99.90;;;;;;4984439;28;20034;-86
2021/11/08 14:01:08;;;;;;;5.97;3.60;;;12.90;99.90;;;;;;4982124;28;20027;-85
2021/11/08 14:03:41;;;;;;;8.75;3.55;;;12.20;99.90;;;;;;4976653;28;20121;-85
2021/11/08 14:06:08;;;;;;;6.55;3.42;;;12.20;99.90;;;;;;4974505;28;20041;-85
2021/11/08 14:08:37;;;;;;;4.47;3.03;;;12.10;99.90;;;;;;4986479;28;20027;-85
2021/11/08 14:11:03;;;;;;;6.28;3.22;;;12.00;99.90;;;;;;4984266;28;20031;-86
2021/11/08 14:13:31;;;;;;;8.00;3.55;;;12.30;99.90;;;;;;4978318;28;20530;-86
2021/11/08 14:16:03;;;;;;;8.15;3.30;;;12.00;99.90;;;;;;4976633;28;20027;-86
2021/11/08 14:18:29;;;;;;;10.50;3.10;;;12.10;99.90;;;;;;4976780;28;20125;-86
2021/11/08 14:21:15;;;;;;;6.22;2.72;;;12.20;99.90;;;;;;4971928;28;20125;-85
2021/11/08 14:23:43;;;;;;;9.10;4.05;;;12.10;99.90;;;;;;4972862;28;20038;-86
2021/11/08 14:26:22;;;;;;;8.05;3.20;;;12.40;99.90;;;;;;5053506;28;20040;-85
2021/11/08 14:28:48;;;;;;;6.78;4.13;;;11.80;99.90;;;;;;5052430;28;20061;-85
2021/11/08 14:31:29;;;;;;;14.15;8.73;;;11.90;99.90;;;;;;5054163;28;20045;-85
2021/11/08 14:34:01;;;;;;;12.65;7.97;;;12.00;99.90;;;;;;5053940;28;20504;-86
2021/11/08 14:36:30;;;;;;;17.52;10.93;;;12.00;99.90;;;;;;5053758;28;20035;-85
2021/11/08 14:39:00;;;;;;;6.80;3.05;;;12.30;99.90;;;;;;5047978;28;20037;-86
2021/11/08 14:41:32;;;;;;;12.35;8.05;;;11.90;99.90;;;;;;5054510;28;20017;-86
2021/11/08 14:44:01;;;;;;;11.05;7.63;;;12.10;99.90;;;;;;5052972;28;20063;-86